sensor_id;sensor_type;location;lat;lon;timestamp;P1;durP1;ratioP1;P2;durP2;ratioP2
5418;SDS011;2732;52.092;11.556;2023-04-23T00:02:44;5.70;;;5.10;;
5418;SDS011;2732;52.092;11.556;2023-04-23T00:07:48;5.13;;;4.63;;
5418;SDS011;2732;52.092;11.556;2023-04-23T00:12:49;5.13;;;4.63;;
5418;SDS011;2732;52.092;11.556;2023-04-23T00:17:50;6.57;;;4.67;;
5418;SDS011;2732;52.092;11.556;2023-04-23T00:22:50;5.60;;;4.40;;
5418;SDS011;2732;52.092;11.556;2023-04-23T00:27:51;4.43;;;4.03;;
5418;SDS011;2732;52.092;11.556;2023-04-23T00:32:51;7.40;;;4.70;;
5418;SDS011;2732;52.092;11.556;2023-04-23T00:37:52;5.20;;;4.80;;
5418;SDS011;2732;52.092;11.556;2023-04-23T00:42:52;9.33;;;5.20;;
5418;SDS011;2732;52.092;11.556;2023-04-23T00:47:55;9.13;;;5.13;;
5418;SDS011;2732;52.092;11.556;2023-04-23T00:52:56;6.10;;;5.00;;
5418;SDS011;2732;52.092;11.556;2023-04-23T00:57:56;7.00;;;5.57;;
5418;SDS011;2732;52.092;11.556;2023-04-23T01:02:57;5.57;;;4.90;;
5418;SDS011;2732;52.092;11.556;2023-04-23T01:07:58;6.10;;;5.57;;
5418;SDS011;2732;52.092;11.556;2023-04-23T01:12:59;6.47;;;5.97;;
5418;SDS011;2732;52.092;11.556;2023-04-23T01:17:59;9.37;;;5.47;;
5418;SDS011;2732;52.092;11.556;2023-04-23T01:23:03;7.73;;;5.40;;
5418;SDS011;2732;52.092;11.556;2023-04-23T01:28:04;10.77;;;5.80;;
5418;SDS011;2732;52.092;11.556;2023-04-23T01:33:05;5.07;;;4.57;;
5418;SDS011;2732;52.092;11.556;2023-04-23T01:38:08;5.73;;;5.20;;
5418;SDS011;2732;52.092;11.556;2023-04-23T01:43:10;6.20;;;5.27;;
5418;SDS011;2732;52.092;11.556;2023-04-23T01:48:11;5.20;;;4.80;;
5418;SDS011;2732;52.092;11.556;2023-04-23T01:53:11;5.60;;;5.10;;
5418;SDS011;2732;52.092;11.556;2023-04-23T01:58:12;5.20;;;4.80;;
5418;SDS011;2732;52.092;11.556;2023-04-23T02:03:13;10.53;;;5.73;;
5418;SDS011;2732;52.092;11.556;2023-04-23T02:08:14;7.03;;;5.97;;
5418;SDS011;2732;52.092;11.556;2023-04-23T02:13:15;8.03;;;6.10;;
5418;SDS011;2732;52.092;11.556;2023-04-23T02:18:15;6.53;;;5.67;;
5418;SDS011;2732;52.092;11.556;2023-04-23T02:23:16;10.93;;;5.90;;
5418;SDS011;2732;52.092;11.556;2023-04-23T02:28:16;6.77;;;6.03;;
5418;SDS011;2732;52.092;11.556;2023-04-23T02:33:17;6.57;;;6.07;;
5418;SDS011;2732;52.092;11.556;2023-04-23T02:38:18;6.07;;;5.47;;
5418;SDS011;2732;52.092;11.556;2023-04-23T02:43:19;5.77;;;5.37;;
5418;SDS011;2732;52.092;11.556;2023-04-23T02:48:20;10.93;;;5.53;;
5418;SDS011;2732;52.092;11.556;2023-04-23T02:53:21;6.30;;;5.80;;
5418;SDS011;2732;52.092;11.556;2023-04-23T02:58:21;6.57;;;5.60;;
5418;SDS011;2732;52.092;11.556;2023-04-23T03:03:24;10.33;;;6.00;;
5418;SDS011;2732;52.092;11.556;2023-04-23T03:08:30;10.33;;;5.83;;
5418;SDS011;2732;52.092;11.556;2023-04-23T03:13:30;6.63;;;6.13;;
5418;SDS011;2732;52.092;11.556;2023-04-23T03:18:31;9.60;;;7.30;;
5418;SDS011;2732;52.092;11.556;2023-04-23T03:23:32;7.97;;;5.93;;
5418;SDS011;2732;52.092;11.556;2023-04-23T03:28:32;9.90;;;6.27;;
5418;SDS011;2732;52.092;11.556;2023-04-23T03:33:33;6.90;;;6.30;;
5418;SDS011;2732;52.092;11.556;2023-04-23T03:38:33;7.37;;;6.67;;
5418;SDS011;2732;52.092;11.556;2023-04-23T03:43:34;8.87;;;7.73;;
5418;SDS011;2732;52.092;11.556;2023-04-23T03:48:35;7.27;;;6.60;;
5418;SDS011;2732;52.092;11.556;2023-04-23T03:53:35;9.93;;;7.10;;
5418;SDS011;2732;52.092;11.556;2023-04-23T03:58:36;7.70;;;7.00;;
5418;SDS011;2732;52.092;11.556;2023-04-23T04:03:37;8.93;;;7.47;;
5418;SDS011;2732;52.092;11.556;2023-04-23T04:08:37;7.90;;;6.87;;
5418;SDS011;2732;52.092;11.556;2023-04-23T04:13:38;10.37;;;7.43;;
5418;SDS011;2732;52.092;11.556;2023-04-23T04:18:38;7.57;;;6.20;;
5418;SDS011;2732;52.092;11.556;2023-04-23T04:23:39;8.10;;;5.50;;
5418;SDS011;2732;52.092;11.556;2023-04-23T04:28:39;5.57;;;5.17;;
5418;SDS011;2732;52.092;11.556;2023-04-23T04:33:40;7.37;;;4.83;;
5418;SDS011;2732;52.092;11.556;2023-04-23T04:38:41;6.17;;;5.00;;
5418;SDS011;2732;52.092;11.556;2023-04-23T04:43:42;6.80;;;4.87;;
5418;SDS011;2732;52.092;11.556;2023-04-23T04:48:44;5.50;;;5.00;;
5418;SDS011;2732;52.092;11.556;2023-04-23T04:53:44;7.80;;;6.23;;
5418;SDS011;2732;52.092;11.556;2023-04-23T04:58:45;9.03;;;5.23;;
5418;SDS011;2732;52.092;11.556;2023-04-23T05:03:45;7.50;;;5.27;;
5418;SDS011;2732;52.092;11.556;2023-04-23T05:08:46;5.17;;;4.67;;
5418;SDS011;2732;52.092;11.556;2023-04-23T05:13:47;5.60;;;5.10;;
5418;SDS011;2732;52.092;11.556;2023-04-23T05:18:47;5.17;;;4.60;;
5418;SDS011;2732;52.092;11.556;2023-04-23T05:23:48;5.40;;;4.53;;
5418;SDS011;2732;52.092;11.556;2023-04-23T05:28:49;6.30;;;5.33;;
5418;SDS011;2732;52.092;11.556;2023-04-23T05:33:49;5.47;;;4.80;;
5418;SDS011;2732;52.092;11.556;2023-04-23T05:38:50;6.23;;;5.67;;
5418;SDS011;2732;52.092;11.556;2023-04-23T05:43:50;6.80;;;6.10;;
5418;SDS011;2732;52.092;11.556;2023-04-23T05:48:51;6.50;;;5.90;;
5418;SDS011;2732;52.092;11.556;2023-04-23T05:53:52;6.30;;;5.70;;
5418;SDS011;2732;52.092;11.556;2023-04-23T05:58:53;7.73;;;6.43;;
5418;SDS011;2732;52.092;11.556;2023-04-23T06:03:53;8.00;;;5.50;;
5418;SDS011;2732;52.092;11.556;2023-04-23T06:08:54;8.00;;;5.93;;
5418;SDS011;2732;52.092;11.556;2023-04-23T06:13:54;6.00;;;5.10;;
5418;SDS011;2732;52.092;11.556;2023-04-23T06:18:55;6.93;;;6.33;;
5418;SDS011;2732;52.092;11.556;2023-04-23T06:23:56;6.50;;;6.00;;
5418;SDS011;2732;52.092;11.556;2023-04-23T06:28:56;11.50;;;9.83;;
5418;SDS011;2732;52.092;11.556;2023-04-23T06:33:57;18.67;;;10.77;;
5418;SDS011;2732;52.092;11.556;2023-04-23T06:38:58;18.50;;;11.87;;
5418;SDS011;2732;52.092;11.556;2023-04-23T06:43:58;14.47;;;11.50;;
5418;SDS011;2732;52.092;11.556;2023-04-23T06:48:59;14.60;;;11.57;;
5418;SDS011;2732;52.092;11.556;2023-04-23T06:54:00;14.07;;;11.70;;
5418;SDS011;2732;52.092;11.556;2023-04-23T06:59:01;20.00;;;14.03;;
5418;SDS011;2732;52.092;11.556;2023-04-23T07:04:02;24.23;;;16.33;;
5418;SDS011;2732;52.092;11.556;2023-04-23T07:09:03;25.47;;;17.00;;
5418;SDS011;2732;52.092;11.556;2023-04-23T07:14:05;25.50;;;18.37;;
5418;SDS011;2732;52.092;11.556;2023-04-23T07:19:05;32.30;;;23.40;;
5418;SDS011;2732;52.092;11.556;2023-04-23T07:24:06;28.10;;;22.20;;
5418;SDS011;2732;52.092;11.556;2023-04-23T07:29:07;33.57;;;24.47;;
5418;SDS011;2732;52.092;11.556;2023-04-23T07:34:10;34.23;;;24.97;;
5418;SDS011;2732;52.092;11.556;2023-04-23T07:39:10;33.30;;;24.33;;
5418;SDS011;2732;52.092;11.556;2023-04-23T07:44:11;39.03;;;24.63;;
5418;SDS011;2732;52.092;11.556;2023-04-23T07:49:12;34.67;;;23.20;;
5418;SDS011;2732;52.092;11.556;2023-04-23T07:54:12;36.57;;;25.70;;
5418;SDS011;2732;52.092;11.556;2023-04-23T07:59:13;32.50;;;23.80;;
5418;SDS011;2732;52.092;11.556;2023-04-23T08:04:14;36.83;;;25.47;;
5418;SDS011;2732;52.092;11.556;2023-04-23T08:09:14;34.60;;;24.63;;
5418;SDS011;2732;52.092;11.556;2023-04-23T08:14:15;34.77;;;23.63;;
5418;SDS011;2732;52.092;11.556;2023-04-23T08:19:17;30.80;;;23.13;;
5418;SDS011;2732;52.092;11.556;2023-04-23T08:24:17;27.27;;;20.37;;
5418;SDS011;2732;52.092;11.556;2023-04-23T08:29:18;31.80;;;23.23;;
5418;SDS011;2732;52.092;11.556;2023-04-23T08:34:19;29.60;;;21.30;;
5418;SDS011;2732;52.092;11.556;2023-04-23T08:39:19;31.87;;;21.77;;
5418;SDS011;2732;52.092;11.556;2023-04-23T08:44:22;30.10;;;22.20;;
5418;SDS011;2732;52.092;11.556;2023-04-23T08:49:25;37.40;;;22.57;;
5418;SDS011;2732;52.092;11.556;2023-04-23T08:54:32;27.70;;;20.17;;
5418;SDS011;2732;52.092;11.556;2023-04-23T08:59:36;27.70;;;20.17;;
5418;SDS011;2732;52.092;11.556;2023-04-23T09:04:38;27.70;;;19.50;;
5418;SDS011;2732;52.092;11.556;2023-04-23T09:09:40;25.07;;;19.10;;
5418;SDS011;2732;52.092;11.556;2023-04-23T09:14:44;20.37;;;16.73;;
5418;SDS011;2732;52.092;11.556;2023-04-23T09:19:45;19.20;;;15.63;;
5418;SDS011;2732;52.092;11.556;2023-04-23T09:24:46;19.37;;;15.07;;
5418;SDS011;2732;52.092;11.556;2023-04-23T09:29:47;19.70;;;15.80;;
5418;SDS011;2732;52.092;11.556;2023-04-23T09:34:54;17.00;;;14.60;;
5418;SDS011;2732;52.092;11.556;2023-04-23T09:40:03;22.03;;;17.30;;
5418;SDS011;2732;52.092;11.556;2023-04-23T09:45:10;18.97;;;14.93;;
5418;SDS011;2732;52.092;11.556;2023-04-23T09:50:12;18.00;;;15.63;;
5418;SDS011;2732;52.092;11.556;2023-04-23T09:55:13;16.57;;;14.67;;
5418;SDS011;2732;52.092;11.556;2023-04-23T10:00:15;16.30;;;14.60;;
5418;SDS011;2732;52.092;11.556;2023-04-23T10:05:19;14.00;;;12.53;;
5418;SDS011;2732;52.092;11.556;2023-04-23T10:10:24;18.83;;;12.90;;
5418;SDS011;2732;52.092;11.556;2023-04-23T10:15:25;10.67;;;9.67;;
5418;SDS011;2732;52.092;11.556;2023-04-23T10:20:26;11.43;;;10.10;;
5418;SDS011;2732;52.092;11.556;2023-04-23T10:25:44;15.50;;;13.43;;
5418;SDS011;2732;52.092;11.556;2023-04-23T10:30:46;13.03;;;11.50;;
5418;SDS011;2732;52.092;11.556;2023-04-23T10:35:48;8.57;;;7.73;;
5418;SDS011;2732;52.092;11.556;2023-04-23T10:40:49;11.27;;;10.17;;
5418;SDS011;2732;52.092;11.556;2023-04-23T10:45:53;10.00;;;8.40;;
5418;SDS011;2732;52.092;11.556;2023-04-23T10:50:57;11.73;;;10.50;;
5418;SDS011;2732;52.092;11.556;2023-04-23T10:56:04;11.27;;;9.47;;
5418;SDS011;2732;52.092;11.556;2023-04-23T11:01:06;9.83;;;8.83;;
5418;SDS011;2732;52.092;11.556;2023-04-23T11:06:07;9.50;;;7.87;;
5418;SDS011;2732;52.092;11.556;2023-04-23T11:11:12;7.27;;;6.57;;
5418;SDS011;2732;52.092;11.556;2023-04-23T11:16:16;8.30;;;6.70;;
5418;SDS011;2732;52.092;11.556;2023-04-23T11:21:20;5.67;;;4.93;;
5418;SDS011;2732;52.092;11.556;2023-04-23T11:26:21;7.27;;;6.67;;
5418;SDS011;2732;52.092;11.556;2023-04-23T11:31:28;6.67;;;5.80;;
5418;SDS011;2732;52.092;11.556;2023-04-23T11:36:28;5.10;;;4.73;;
5418;SDS011;2732;52.092;11.556;2023-04-23T11:41:29;8.20;;;5.67;;
5418;SDS011;2732;52.092;11.556;2023-04-23T11:46:30;5.30;;;4.90;;
5418;SDS011;2732;52.092;11.556;2023-04-23T11:51:30;8.83;;;4.63;;
5418;SDS011;2732;52.092;11.556;2023-04-23T11:56:31;4.03;;;3.83;;
5418;SDS011;2732;52.092;11.556;2023-04-23T12:01:38;4.73;;;4.33;;
5418;SDS011;2732;52.092;11.556;2023-04-23T12:06:44;4.10;;;3.80;;
5418;SDS011;2732;52.092;11.556;2023-04-23T12:11:46;3.40;;;3.10;;
5418;SDS011;2732;52.092;11.556;2023-04-23T12:16:49;4.60;;;4.20;;
5418;SDS011;2732;52.092;11.556;2023-04-23T12:21:54;3.60;;;3.30;;
5418;SDS011;2732;52.092;11.556;2023-04-23T12:26:59;3.67;;;3.40;;
5418;SDS011;2732;52.092;11.556;2023-04-23T12:32:01;3.17;;;2.97;;
5418;SDS011;2732;52.092;11.556;2023-04-23T12:37:06;4.20;;;3.80;;
5418;SDS011;2732;52.092;11.556;2023-04-23T12:42:06;5.07;;;2.17;;
5418;SDS011;2732;52.092;11.556;2023-04-23T12:47:09;3.00;;;2.90;;
5418;SDS011;2732;52.092;11.556;2023-04-23T12:52:11;4.70;;;3.43;;
5418;SDS011;2732;52.092;11.556;2023-04-23T12:57:12;3.00;;;2.80;;
5418;SDS011;2732;52.092;11.556;2023-04-23T13:02:15;4.33;;;3.23;;
5418;SDS011;2732;52.092;11.556;2023-04-23T13:07:16;2.17;;;2.07;;
5418;SDS011;2732;52.092;11.556;2023-04-23T13:12:17;2.73;;;2.53;;
5418;SDS011;2732;52.092;11.556;2023-04-23T13:17:17;2.87;;;2.60;;
5418;SDS011;2732;52.092;11.556;2023-04-23T13:22:19;2.20;;;2.10;;
5418;SDS011;2732;52.092;11.556;2023-04-23T13:27:21;2.30;;;2.20;;
5418;SDS011;2732;52.092;11.556;2023-04-23T13:32:24;2.63;;;2.13;;
5418;SDS011;2732;52.092;11.556;2023-04-23T13:37:27;2.50;;;2.30;;
5418;SDS011;2732;52.092;11.556;2023-04-23T13:42:30;2.50;;;2.40;;
5418;SDS011;2732;52.092;11.556;2023-04-23T13:47:30;2.73;;;2.53;;
5418;SDS011;2732;52.092;11.556;2023-04-23T13:52:33;3.10;;;2.20;;
5418;SDS011;2732;52.092;11.556;2023-04-23T13:57:34;2.37;;;2.17;;
5418;SDS011;2732;52.092;11.556;2023-04-23T14:02:35;2.10;;;2.00;;
5418;SDS011;2732;52.092;11.556;2023-04-23T14:07:35;2.60;;;2.00;;
5418;SDS011;2732;52.092;11.556;2023-04-23T14:12:36;1.73;;;1.63;;
5418;SDS011;2732;52.092;11.556;2023-04-23T14:17:38;2.90;;;1.53;;
5418;SDS011;2732;52.092;11.556;2023-04-23T14:22:39;1.63;;;1.47;;
5418;SDS011;2732;52.092;11.556;2023-04-23T14:27:44;1.70;;;1.60;;
5418;SDS011;2732;52.092;11.556;2023-04-23T14:32:49;1.40;;;1.30;;
5418;SDS011;2732;52.092;11.556;2023-04-23T14:37:50;1.90;;;1.80;;
5418;SDS011;2732;52.092;11.556;2023-04-23T14:42:50;3.10;;;1.27;;
5418;SDS011;2732;52.092;11.556;2023-04-23T14:47:51;3.70;;;1.30;;
5418;SDS011;2732;52.092;11.556;2023-04-23T14:52:51;1.30;;;1.20;;
5418;SDS011;2732;52.092;11.556;2023-04-23T14:57:53;1.90;;;1.50;;
5418;SDS011;2732;52.092;11.556;2023-04-23T15:02:53;4.53;;;1.07;;
5418;SDS011;2732;52.092;11.556;2023-04-23T15:07:54;12.73;;;1.40;;
5418;SDS011;2732;52.092;11.556;2023-04-23T15:13:01;1.67;;;1.57;;
5418;SDS011;2732;52.092;11.556;2023-04-23T15:18:07;1.37;;;1.37;;
5418;SDS011;2732;52.092;11.556;2023-04-23T15:23:08;3.90;;;1.60;;
5418;SDS011;2732;52.092;11.556;2023-04-23T15:28:09;3.73;;;1.43;;
5418;SDS011;2732;52.092;11.556;2023-04-23T15:33:10;4.40;;;1.87;;
5418;SDS011;2732;52.092;11.556;2023-04-23T15:38:10;2.20;;;1.80;;
5418;SDS011;2732;52.092;11.556;2023-04-23T15:43:11;1.63;;;1.50;;
5418;SDS011;2732;52.092;11.556;2023-04-23T15:48:16;5.90;;;1.20;;
5418;SDS011;2732;52.092;11.556;2023-04-23T15:53:16;1.70;;;1.60;;
5418;SDS011;2732;52.092;11.556;2023-04-23T15:58:19;1.73;;;1.63;;
5418;SDS011;2732;52.092;11.556;2023-04-23T16:03:20;1.60;;;1.50;;
5418;SDS011;2732;52.092;11.556;2023-04-23T16:08:20;1.27;;;1.27;;
5418;SDS011;2732;52.092;11.556;2023-04-23T16:13:21;3.33;;;1.97;;
5418;SDS011;2732;52.092;11.556;2023-04-23T16:18:23;2.23;;;2.07;;
5418;SDS011;2732;52.092;11.556;2023-04-23T16:23:25;3.63;;;3.33;;
5418;SDS011;2732;52.092;11.556;2023-04-23T16:28:26;1.43;;;1.33;;
5418;SDS011;2732;52.092;11.556;2023-04-23T16:33:27;1.43;;;1.30;;
5418;SDS011;2732;52.092;11.556;2023-04-23T16:38:29;2.30;;;1.20;;
5418;SDS011;2732;52.092;11.556;2023-04-23T16:43:29;3.07;;;1.43;;
5418;SDS011;2732;52.092;11.556;2023-04-23T16:48:30;2.60;;;1.23;;
5418;SDS011;2732;52.092;11.556;2023-04-23T16:53:31;1.60;;;1.50;;
5418;SDS011;2732;52.092;11.556;2023-04-23T16:58:31;2.90;;;1.33;;
5418;SDS011;2732;52.092;11.556;2023-04-23T17:03:32;2.07;;;1.20;;
5418;SDS011;2732;52.092;11.556;2023-04-23T17:08:33;1.43;;;1.03;;
5418;SDS011;2732;52.092;11.556;2023-04-23T17:13:35;1.20;;;1.10;;
5418;SDS011;2732;52.092;11.556;2023-04-23T17:18:36;1.00;;;0.90;;
5418;SDS011;2732;52.092;11.556;2023-04-23T17:23:36;1.03;;;0.93;;
5418;SDS011;2732;52.092;11.556;2023-04-23T17:28:37;1.50;;;1.40;;
5418;SDS011;2732;52.092;11.556;2023-04-23T17:33:39;1.10;;;1.00;;
5418;SDS011;2732;52.092;11.556;2023-04-23T17:38:42;1.43;;;1.20;;
5418;SDS011;2732;52.092;11.556;2023-04-23T17:43:45;1.27;;;1.20;;
5418;SDS011;2732;52.092;11.556;2023-04-23T17:48:48;3.20;;;1.20;;
5418;SDS011;2732;52.092;11.556;2023-04-23T17:53:48;4.87;;;1.67;;
5418;SDS011;2732;52.092;11.556;2023-04-23T17:58:50;1.57;;;1.47;;
5418;SDS011;2732;52.092;11.556;2023-04-23T18:03:51;5.50;;;1.50;;
5418;SDS011;2732;52.092;11.556;2023-04-23T18:08:52;1.33;;;1.23;;
5418;SDS011;2732;52.092;11.556;2023-04-23T18:13:52;1.43;;;1.07;;
5418;SDS011;2732;52.092;11.556;2023-04-23T18:18:53;2.47;;;1.40;;
5418;SDS011;2732;52.092;11.556;2023-04-23T18:23:54;1.77;;;1.23;;
5418;SDS011;2732;52.092;11.556;2023-04-23T18:28:54;4.87;;;1.50;;
5418;SDS011;2732;52.092;11.556;2023-04-23T18:33:58;1.53;;;1.30;;
5418;SDS011;2732;52.092;11.556;2023-04-23T18:39:04;1.80;;;1.70;;
5418;SDS011;2732;52.092;11.556;2023-04-23T18:44:06;4.60;;;1.83;;
5418;SDS011;2732;52.092;11.556;2023-04-23T18:54:28;1.83;;;1.73;;
5418;SDS011;2732;52.092;11.556;2023-04-23T18:59:29;6.80;;;1.60;;
5418;SDS011;2732;52.092;11.556;2023-04-23T19:04:34;2.10;;;1.63;;
5418;SDS011;2732;52.092;11.556;2023-04-23T19:09:35;2.00;;;1.90;;
5418;SDS011;2732;52.092;11.556;2023-04-23T19:14:35;1.83;;;1.73;;
5418;SDS011;2732;52.092;11.556;2023-04-23T19:19:36;2.73;;;2.00;;
5418;SDS011;2732;52.092;11.556;2023-04-23T19:24:37;4.20;;;2.17;;
5418;SDS011;2732;52.092;11.556;2023-04-23T19:29:37;2.17;;;2.07;;
5418;SDS011;2732;52.092;11.556;2023-04-23T19:34:38;3.23;;;1.70;;
5418;SDS011;2732;52.092;11.556;2023-04-23T19:39:39;7.20;;;2.00;;
5418;SDS011;2732;52.092;11.556;2023-04-23T19:44:39;2.03;;;1.83;;
5418;SDS011;2732;52.092;11.556;2023-04-23T19:49:40;3.83;;;2.50;;
5418;SDS011;2732;52.092;11.556;2023-04-23T19:54:40;2.90;;;2.70;;
5418;SDS011;2732;52.092;11.556;2023-04-23T19:59:45;2.27;;;2.17;;
5418;SDS011;2732;52.092;11.556;2023-04-23T20:04:46;2.50;;;1.90;;
5418;SDS011;2732;52.092;11.556;2023-04-23T20:09:47;2.00;;;1.90;;
5418;SDS011;2732;52.092;11.556;2023-04-23T20:14:48;2.13;;;1.90;;
5418;SDS011;2732;52.092;11.556;2023-04-23T20:19:48;2.07;;;1.83;;
5418;SDS011;2732;52.092;11.556;2023-04-23T20:24:49;3.37;;;1.63;;
5418;SDS011;2732;52.092;11.556;2023-04-23T20:29:49;14.57;;;1.70;;
5418;SDS011;2732;52.092;11.556;2023-04-23T20:34:50;2.03;;;1.93;;
5418;SDS011;2732;52.092;11.556;2023-04-23T20:39:52;2.30;;;1.70;;
5418;SDS011;2732;52.092;11.556;2023-04-23T20:44:53;1.73;;;1.63;;
5418;SDS011;2732;52.092;11.556;2023-04-23T20:49:53;2.20;;;2.10;;
5418;SDS011;2732;52.092;11.556;2023-04-23T20:54:54;2.83;;;2.13;;
5418;SDS011;2732;52.092;11.556;2023-04-23T20:59:55;2.23;;;1.97;;
5418;SDS011;2732;52.092;11.556;2023-04-23T21:04:55;2.00;;;1.90;;
5418;SDS011;2732;52.092;11.556;2023-04-23T21:09:56;4.87;;;2.10;;
5418;SDS011;2732;52.092;11.556;2023-04-23T21:14:56;2.37;;;2.27;;
5418;SDS011;2732;52.092;11.556;2023-04-23T21:19:57;2.87;;;2.60;;
5418;SDS011;2732;52.092;11.556;2023-04-23T21:24:57;2.33;;;2.13;;
5418;SDS011;2732;52.092;11.556;2023-04-23T21:29:59;2.43;;;2.23;;
5418;SDS011;2732;52.092;11.556;2023-04-23T21:35:07;2.20;;;2.10;;
5418;SDS011;2732;52.092;11.556;2023-04-23T21:40:08;2.83;;;2.00;;
5418;SDS011;2732;52.092;11.556;2023-04-23T21:45:09;2.00;;;1.90;;
5418;SDS011;2732;52.092;11.556;2023-04-23T21:50:10;3.40;;;2.47;;
5418;SDS011;2732;52.092;11.556;2023-04-23T21:55:11;8.00;;;2.50;;
5418;SDS011;2732;52.092;11.556;2023-04-23T22:00:13;2.03;;;1.90;;
5418;SDS011;2732;52.092;11.556;2023-04-23T22:05:15;2.50;;;2.30;;
5418;SDS011;2732;52.092;11.556;2023-04-23T22:10:20;2.13;;;1.93;;
5418;SDS011;2732;52.092;11.556;2023-04-23T22:15:20;2.80;;;2.60;;
5418;SDS011;2732;52.092;11.556;2023-04-23T22:20:22;2.43;;;2.23;;
5418;SDS011;2732;52.092;11.556;2023-04-23T22:25:22;2.23;;;2.03;;
5418;SDS011;2732;52.092;11.556;2023-04-23T22:30:23;2.40;;;2.20;;
5418;SDS011;2732;52.092;11.556;2023-04-23T22:35:27;5.63;;;2.20;;
5418;SDS011;2732;52.092;11.556;2023-04-23T22:40:28;2.87;;;2.70;;
5418;SDS011;2732;52.092;11.556;2023-04-23T22:45:28;2.03;;;1.93;;
5418;SDS011;2732;52.092;11.556;2023-04-23T22:50:29;3.03;;;2.70;;
5418;SDS011;2732;52.092;11.556;2023-04-23T22:55:30;2.47;;;2.27;;
5418;SDS011;2732;52.092;11.556;2023-04-23T23:00:30;2.63;;;2.20;;
5418;SDS011;2732;52.092;11.556;2023-04-23T23:05:31;2.53;;;2.43;;
5418;SDS011;2732;52.092;11.556;2023-04-23T23:10:31;2.13;;;2.03;;
5418;SDS011;2732;52.092;11.556;2023-04-23T23:15:32;4.07;;;3.17;;
5418;SDS011;2732;52.092;11.556;2023-04-23T23:20:33;3.50;;;3.20;;
5418;SDS011;2732;52.092;11.556;2023-04-23T23:25:35;2.60;;;2.50;;
5418;SDS011;2732;52.092;11.556;2023-04-23T23:30:37;3.20;;;3.00;;
5418;SDS011;2732;52.092;11.556;2023-04-23T23:35:37;4.17;;;3.43;;
5418;SDS011;2732;52.092;11.556;2023-04-23T23:40:39;3.80;;;3.50;;
5418;SDS011;2732;52.092;11.556;2023-04-23T23:45:39;3.70;;;3.33;;
5418;SDS011;2732;52.092;11.556;2023-04-23T23:50:40;6.23;;;3.50;;
5418;SDS011;2732;52.092;11.556;2023-04-23T23:55:41;4.63;;;3.60;;
